sensor_id;sensor_type;location;lat;lon;timestamp;pressure;altitude;pressure_sealevel;temperature;humidity
6532;BME280;3299;42.004;24.868;2022-10-31T00:00:58;98512.06;;;15.31;57.46
6532;BME280;3299;42.004;24.868;2022-10-31T00:03:24;98514.78;;;15.20;58.19
6532;BME280;3299;42.004;24.868;2022-10-31T00:05:51;98516.53;;;15.20;57.97
6532;BME280;3299;42.004;24.868;2022-10-31T00:08:17;98514.44;;;15.14;58.63
6532;BME280;3299;42.004;24.868;2022-10-31T00:10:43;98519.22;;;15.09;58.62
6532;BME280;3299;42.004;24.868;2022-10-31T00:13:10;98520.47;;;15.05;59.24
6532;BME280;3299;42.004;24.868;2022-10-31T00:15:37;98519.06;;;15.01;59.18
6532;BME280;3299;42.004;24.868;2022-10-31T00:18:03;98517.94;;;14.94;59.29
6532;BME280;3299;42.004;24.868;2022-10-31T00:20:30;98514.06;;;14.88;59.46
6532;BME280;3299;42.004;24.868;2022-10-31T00:22:59;98513.63;;;14.83;59.74
6532;BME280;3299;42.004;24.868;2022-10-31T00:25:26;98515.03;;;14.67;60.21
6532;BME280;3299;42.004;24.868;2022-10-31T00:27:52;98509.81;;;14.67;60.71
6532;BME280;3299;42.004;24.868;2022-10-31T00:30:17;98506.53;;;14.65;61.14
6532;BME280;3299;42.004;24.868;2022-10-31T00:32:43;98501.88;;;14.68;60.99
6532;BME280;3299;42.004;24.868;2022-10-31T00:35:08;98503.22;;;14.63;61.03
6532;BME280;3299;42.004;24.868;2022-10-31T00:37:34;98502.13;;;14.65;61.20
6532;BME280;3299;42.004;24.868;2022-10-31T00:39:59;98505.75;;;14.74;60.86
6532;BME280;3299;42.004;24.868;2022-10-31T00:42:25;98491.00;;;14.84;60.51
6532;BME280;3299;42.004;24.868;2022-10-31T00:44:50;98490.47;;;14.90;60.74
6532;BME280;3299;42.004;24.868;2022-10-31T00:47:15;98482.50;;;14.82;61.11
6532;BME280;3299;42.004;24.868;2022-10-31T00:49:41;98504.22;;;14.92;61.79
6532;BME280;3299;42.004;24.868;2022-10-31T00:52:07;98505.31;;;14.89;60.85
6532;BME280;3299;42.004;24.868;2022-10-31T00:54:32;98490.59;;;14.88;60.80
6532;BME280;3299;42.004;24.868;2022-10-31T00:56:57;98495.56;;;14.91;61.86
6532;BME280;3299;42.004;24.868;2022-10-31T00:59:23;98494.94;;;14.99;61.70
6532;BME280;3299;42.004;24.868;2022-10-31T01:01:48;98497.25;;;15.02;62.00
6532;BME280;3299;42.004;24.868;2022-10-31T01:04:14;98493.03;;;15.10;61.87
6532;BME280;3299;42.004;24.868;2022-10-31T01:06:39;98500.81;;;15.01;61.44
6532;BME280;3299;42.004;24.868;2022-10-31T01:09:04;98494.13;;;15.08;61.19
6532;BME280;3299;42.004;24.868;2022-10-31T01:11:30;98500.44;;;15.05;60.71
6532;BME280;3299;42.004;24.868;2022-10-31T01:13:56;98499.84;;;15.02;61.23
6532;BME280;3299;42.004;24.868;2022-10-31T01:16:23;98502.34;;;15.03;61.39
6532;BME280;3299;42.004;24.868;2022-10-31T01:18:50;98504.13;;;15.03;60.67
6532;BME280;3299;42.004;24.868;2022-10-31T01:21:20;98501.25;;;15.06;60.46
6532;BME280;3299;42.004;24.868;2022-10-31T01:23:46;98495.44;;;14.93;63.13
6532;BME280;3299;42.004;24.868;2022-10-31T01:26:19;98489.00;;;14.97;61.48
6532;BME280;3299;42.004;24.868;2022-10-31T01:28:50;98493.41;;;14.96;61.59
6532;BME280;3299;42.004;24.868;2022-10-31T01:31:18;98487.78;;;15.01;61.80
6532;BME280;3299;42.004;24.868;2022-10-31T01:33:44;98482.06;;;15.07;61.51
6532;BME280;3299;42.004;24.868;2022-10-31T01:36:28;98476.16;;;15.05;61.49
6532;BME280;3299;42.004;24.868;2022-10-31T01:38:57;98470.75;;;14.97;61.42
6532;BME280;3299;42.004;24.868;2022-10-31T01:41:29;98473.56;;;15.05;61.14
6532;BME280;3299;42.004;24.868;2022-10-31T01:43:57;98471.06;;;15.03;61.30
6532;BME280;3299;42.004;24.868;2022-10-31T01:48:55;98461.78;;;15.20;61.74
6532;BME280;3299;42.004;24.868;2022-10-31T01:51:27;98465.72;;;15.35;61.21
6532;BME280;3299;42.004;24.868;2022-10-31T01:53:55;98480.59;;;15.53;61.30
6532;BME280;3299;42.004;24.868;2022-10-31T01:56:23;98479.13;;;15.70;60.60
6532;BME280;3299;42.004;24.868;2022-10-31T01:58:49;98480.66;;;15.91;59.89
6532;BME280;3299;42.004;24.868;2022-10-31T02:01:16;98477.38;;;15.99;59.53
6532;BME280;3299;42.004;24.868;2022-10-31T02:03:42;98475.31;;;16.02;59.38
6532;BME280;3299;42.004;24.868;2022-10-31T02:06:13;98475.28;;;16.12;59.33
6532;BME280;3299;42.004;24.868;2022-10-31T02:08:43;98480.94;;;16.17;58.06
6532;BME280;3299;42.004;24.868;2022-10-31T02:11:09;98463.63;;;16.06;58.31
6532;BME280;3299;42.004;24.868;2022-10-31T02:13:34;98458.66;;;16.03;57.97
6532;BME280;3299;42.004;24.868;2022-10-31T02:16:00;98477.09;;;16.11;58.10
6532;BME280;3299;42.004;24.868;2022-10-31T02:18:27;98480.50;;;16.12;58.39
6532;BME280;3299;42.004;24.868;2022-10-31T02:32:25;98483.38;;;15.90;58.12
6532;BME280;3299;42.004;24.868;2022-10-31T02:40:30;98474.31;;;15.75;58.48
6532;BME280;3299;42.004;24.868;2022-10-31T02:43:05;98471.72;;;15.75;59.56
6532;BME280;3299;42.004;24.868;2022-10-31T02:45:41;98472.81;;;15.82;59.63
6532;BME280;3299;42.004;24.868;2022-10-31T02:48:12;98477.50;;;15.88;59.35
6532;BME280;3299;42.004;24.868;2022-10-31T02:50:42;98465.66;;;15.93;59.17
6532;BME280;3299;42.004;24.868;2022-10-31T02:53:14;98471.31;;;15.98;59.20
6532;BME280;3299;42.004;24.868;2022-10-31T02:55:51;98472.66;;;16.31;58.42
6532;BME280;3299;42.004;24.868;2022-10-31T02:58:22;98470.88;;;16.60;57.58
6532;BME280;3299;42.004;24.868;2022-10-31T03:03:33;98463.50;;;16.92;56.70
6532;BME280;3299;42.004;24.868;2022-10-31T03:06:40;98472.72;;;16.96;56.46
6532;BME280;3299;42.004;24.868;2022-10-31T03:11:42;98484.81;;;17.24;56.24
6532;BME280;3299;42.004;24.868;2022-10-31T03:14:19;98491.28;;;17.39;55.46
6532;BME280;3299;42.004;24.868;2022-10-31T03:16:51;98498.25;;;17.48;55.70
6532;BME280;3299;42.004;24.868;2022-10-31T03:19:28;98499.38;;;17.45;55.88
6532;BME280;3299;42.004;24.868;2022-10-31T03:22:19;98508.53;;;17.22;54.58
6532;BME280;3299;42.004;24.868;2022-10-31T03:24:46;98516.31;;;16.95;55.44
6532;BME280;3299;42.004;24.868;2022-10-31T03:27:16;98501.94;;;16.72;55.56
6532;BME280;3299;42.004;24.868;2022-10-31T03:29:44;98529.59;;;16.56;56.32
6532;BME280;3299;42.004;24.868;2022-10-31T03:32:17;98520.09;;;16.36;57.06
6532;BME280;3299;42.004;24.868;2022-10-31T03:34:44;98520.63;;;16.11;58.05
6532;BME280;3299;42.004;24.868;2022-10-31T03:37:14;98533.13;;;15.98;58.68
6532;BME280;3299;42.004;24.868;2022-10-31T03:39:41;98535.19;;;15.85;59.05
6532;BME280;3299;42.004;24.868;2022-10-31T03:42:15;98531.97;;;15.72;59.46
6532;BME280;3299;42.004;24.868;2022-10-31T03:44:45;98545.69;;;15.64;60.30
6532;BME280;3299;42.004;24.868;2022-10-31T03:47:12;98548.88;;;15.68;59.85
6532;BME280;3299;42.004;24.868;2022-10-31T03:49:38;98539.63;;;15.54;60.38
6532;BME280;3299;42.004;24.868;2022-10-31T03:55:03;98546.50;;;15.55;60.83
6532;BME280;3299;42.004;24.868;2022-10-31T04:00:11;98542.81;;;15.67;60.77
6532;BME280;3299;42.004;24.868;2022-10-31T04:02:40;98541.72;;;15.70;60.95
6532;BME280;3299;42.004;24.868;2022-10-31T04:05:08;98538.72;;;15.84;60.22
6532;BME280;3299;42.004;24.868;2022-10-31T04:07:39;98532.69;;;15.83;60.17
6532;BME280;3299;42.004;24.868;2022-10-31T04:10:10;98540.13;;;15.88;59.86
6532;BME280;3299;42.004;24.868;2022-10-31T04:12:37;98538.34;;;15.88;59.93
6532;BME280;3299;42.004;24.868;2022-10-31T04:15:05;98545.34;;;15.88;59.98
6532;BME280;3299;42.004;24.868;2022-10-31T04:17:34;98551.75;;;15.74;59.84
6532;BME280;3299;42.004;24.868;2022-10-31T04:20:02;98561.91;;;15.68;60.41
6532;BME280;3299;42.004;24.868;2022-10-31T04:22:28;98563.00;;;15.65;60.67
6532;BME280;3299;42.004;24.868;2022-10-31T04:24:53;98570.81;;;15.56;60.88
6532;BME280;3299;42.004;24.868;2022-10-31T04:27:19;98575.63;;;15.60;60.92
6532;BME280;3299;42.004;24.868;2022-10-31T04:29:44;98583.03;;;15.65;60.73
6532;BME280;3299;42.004;24.868;2022-10-31T04:32:09;98585.22;;;15.60;60.91
6532;BME280;3299;42.004;24.868;2022-10-31T04:34:35;98584.53;;;15.58;61.34
6532;BME280;3299;42.004;24.868;2022-10-31T04:37:00;98568.69;;;15.50;61.25
6532;BME280;3299;42.004;24.868;2022-10-31T04:39:26;98582.31;;;15.53;61.84
6532;BME280;3299;42.004;24.868;2022-10-31T04:41:51;98575.72;;;15.49;61.85
6532;BME280;3299;42.004;24.868;2022-10-31T04:44:16;98573.13;;;15.59;61.84
6532;BME280;3299;42.004;24.868;2022-10-31T04:46:42;98579.47;;;15.66;61.86
6532;BME280;3299;42.004;24.868;2022-10-31T04:49:07;98584.59;;;15.77;61.32
6532;BME280;3299;42.004;24.868;2022-10-31T04:51:33;98582.25;;;15.74;60.97
6532;BME280;3299;42.004;24.868;2022-10-31T04:53:58;98582.47;;;15.61;61.52
6532;BME280;3299;42.004;24.868;2022-10-31T04:56:23;98580.56;;;15.63;61.56
6532;BME280;3299;42.004;24.868;2022-10-31T04:58:49;98594.84;;;15.59;61.63
6532;BME280;3299;42.004;24.868;2022-10-31T05:01:14;98596.59;;;15.59;61.64
6532;BME280;3299;42.004;24.868;2022-10-31T05:03:40;98590.41;;;15.50;62.44
6532;BME280;3299;42.004;24.868;2022-10-31T05:06:06;98592.59;;;15.55;61.83
6532;BME280;3299;42.004;24.868;2022-10-31T05:08:31;98596.88;;;15.56;62.28
6532;BME280;3299;42.004;24.868;2022-10-31T05:11:00;98601.69;;;15.60;62.07
6532;BME280;3299;42.004;24.868;2022-10-31T05:13:27;98585.75;;;15.54;62.23
6532;BME280;3299;42.004;24.868;2022-10-31T05:15:52;98609.13;;;15.65;62.29
6532;BME280;3299;42.004;24.868;2022-10-31T05:18:18;98618.88;;;15.63;62.67
6532;BME280;3299;42.004;24.868;2022-10-31T05:20:43;98630.84;;;15.65;62.65
6532;BME280;3299;42.004;24.868;2022-10-31T05:23:08;98638.22;;;15.60;62.69
6532;BME280;3299;42.004;24.868;2022-10-31T05:25:34;98637.94;;;15.63;62.34
6532;BME280;3299;42.004;24.868;2022-10-31T05:27:59;98638.78;;;15.64;62.01
6532;BME280;3299;42.004;24.868;2022-10-31T05:30:28;98636.94;;;15.55;62.51
6532;BME280;3299;42.004;24.868;2022-10-31T05:32:55;98639.19;;;15.59;62.56
6532;BME280;3299;42.004;24.868;2022-10-31T05:35:23;98640.94;;;15.59;62.66
6532;BME280;3299;42.004;24.868;2022-10-31T05:37:49;98632.47;;;15.66;62.53
6532;BME280;3299;42.004;24.868;2022-10-31T05:40:15;98630.50;;;15.59;62.99
6532;BME280;3299;42.004;24.868;2022-10-31T05:42:42;98633.28;;;15.67;62.99
6532;BME280;3299;42.004;24.868;2022-10-31T05:45:09;98627.66;;;15.62;62.64
6532;BME280;3299;42.004;24.868;2022-10-31T05:47:35;98648.69;;;15.70;62.69
6532;BME280;3299;42.004;24.868;2022-10-31T05:50:00;98648.41;;;15.73;62.72
6532;BME280;3299;42.004;24.868;2022-10-31T05:52:26;98645.28;;;15.79;62.55
6532;BME280;3299;42.004;24.868;2022-10-31T05:54:51;98647.41;;;15.85;63.07
6532;BME280;3299;42.004;24.868;2022-10-31T05:57:16;98639.72;;;15.93;62.29
6532;BME280;3299;42.004;24.868;2022-10-31T05:59:42;98637.53;;;15.98;62.58
6532;BME280;3299;42.004;24.868;2022-10-31T06:02:07;98654.03;;;16.08;62.21
6532;BME280;3299;42.004;24.868;2022-10-31T06:04:33;98655.44;;;16.12;62.32
6532;BME280;3299;42.004;24.868;2022-10-31T06:06:58;98662.72;;;16.18;61.82
6532;BME280;3299;42.004;24.868;2022-10-31T06:09:23;98661.06;;;16.17;61.66
6532;BME280;3299;42.004;24.868;2022-10-31T06:11:49;98672.75;;;16.22;62.01
6532;BME280;3299;42.004;24.868;2022-10-31T06:14:14;98677.84;;;16.24;61.53
6532;BME280;3299;42.004;24.868;2022-10-31T06:16:39;98681.03;;;16.27;61.48
6532;BME280;3299;42.004;24.868;2022-10-31T06:19:05;98684.16;;;16.21;61.42
6532;BME280;3299;42.004;24.868;2022-10-31T06:21:30;98692.56;;;16.25;61.68
6532;BME280;3299;42.004;24.868;2022-10-31T06:23:56;98686.13;;;16.29;61.67
6532;BME280;3299;42.004;24.868;2022-10-31T06:26:21;98689.00;;;16.26;62.00
6532;BME280;3299;42.004;24.868;2022-10-31T06:28:46;98689.72;;;16.37;61.97
6532;BME280;3299;42.004;24.868;2022-10-31T06:31:12;98686.03;;;16.40;62.03
6532;BME280;3299;42.004;24.868;2022-10-31T06:33:37;98693.34;;;16.46;62.48
6532;BME280;3299;42.004;24.868;2022-10-31T06:36:03;98691.56;;;16.56;61.55
6532;BME280;3299;42.004;24.868;2022-10-31T06:38:28;98698.03;;;16.61;62.02
6532;BME280;3299;42.004;24.868;2022-10-31T06:40:54;98702.59;;;16.69;61.22
6532;BME280;3299;42.004;24.868;2022-10-31T06:43:20;98701.22;;;16.74;60.98
6532;BME280;3299;42.004;24.868;2022-10-31T06:45:46;98703.69;;;16.76;61.09
6532;BME280;3299;42.004;24.868;2022-10-31T06:48:12;98701.63;;;16.89;60.31
6532;BME280;3299;42.004;24.868;2022-10-31T06:50:37;98708.13;;;16.94;60.38
6532;BME280;3299;42.004;24.868;2022-10-31T06:53:02;98699.97;;;16.97;60.19
6532;BME280;3299;42.004;24.868;2022-10-31T06:55:28;98706.72;;;17.00;60.06
6532;BME280;3299;42.004;24.868;2022-10-31T06:57:58;98704.81;;;17.02;59.79
6532;BME280;3299;42.004;24.868;2022-10-31T07:00:25;98697.34;;;17.07;59.19
6532;BME280;3299;42.004;24.868;2022-10-31T07:03:02;98712.22;;;17.16;59.23
6532;BME280;3299;42.004;24.868;2022-10-31T07:05:28;98703.00;;;17.21;58.33
6532;BME280;3299;42.004;24.868;2022-10-31T07:07:55;98702.19;;;17.21;59.05
6532;BME280;3299;42.004;24.868;2022-10-31T07:10:22;98686.91;;;17.16;58.92
6532;BME280;3299;42.004;24.868;2022-10-31T07:12:48;98708.81;;;17.25;58.57
6532;BME280;3299;42.004;24.868;2022-10-31T07:15:13;98691.44;;;17.24;58.77
6532;BME280;3299;42.004;24.868;2022-10-31T07:17:39;98693.22;;;17.33;58.57
6532;BME280;3299;42.004;24.868;2022-10-31T07:20:05;98696.50;;;17.35;58.57
6532;BME280;3299;42.004;24.868;2022-10-31T07:22:37;98689.38;;;17.37;58.40
6532;BME280;3299;42.004;24.868;2022-10-31T07:25:03;98694.75;;;17.45;58.35
6532;BME280;3299;42.004;24.868;2022-10-31T07:27:28;98692.63;;;17.67;57.76
6532;BME280;3299;42.004;24.868;2022-10-31T07:29:54;98692.88;;;17.74;57.58
6532;BME280;3299;42.004;24.868;2022-10-31T07:32:19;98695.88;;;17.88;57.23
6532;BME280;3299;42.004;24.868;2022-10-31T07:34:45;98702.53;;;18.10;56.47
6532;BME280;3299;42.004;24.868;2022-10-31T07:37:10;98699.72;;;18.21;56.15
6532;BME280;3299;42.004;24.868;2022-10-31T07:39:35;98704.69;;;18.24;56.05
6532;BME280;3299;42.004;24.868;2022-10-31T07:42:01;98709.75;;;18.25;56.37
6532;BME280;3299;42.004;24.868;2022-10-31T07:44:26;98699.56;;;18.32;56.35
6532;BME280;3299;42.004;24.868;2022-10-31T07:46:52;98714.78;;;18.46;56.01
6532;BME280;3299;42.004;24.868;2022-10-31T07:49:17;98712.41;;;18.52;55.87
6532;BME280;3299;42.004;24.868;2022-10-31T07:51:42;98709.19;;;18.58;55.79
6532;BME280;3299;42.004;24.868;2022-10-31T07:54:08;98714.81;;;18.81;55.53
6532;BME280;3299;42.004;24.868;2022-10-31T07:56:33;98711.56;;;18.96;55.14
6532;BME280;3299;42.004;24.868;2022-10-31T07:58:58;98716.13;;;19.12;54.62
6532;BME280;3299;42.004;24.868;2022-10-31T08:01:24;98711.34;;;19.25;55.21
6532;BME280;3299;42.004;24.868;2022-10-31T08:03:49;98711.75;;;19.38;54.56
6532;BME280;3299;42.004;24.868;2022-10-31T08:06:15;98716.09;;;19.47;54.32
6532;BME280;3299;42.004;24.868;2022-10-31T08:08:40;98710.94;;;19.63;53.50
6532;BME280;3299;42.004;24.868;2022-10-31T08:11:05;98701.19;;;19.73;53.23
6532;BME280;3299;42.004;24.868;2022-10-31T08:13:31;98722.50;;;19.95;52.77
6532;BME280;3299;42.004;24.868;2022-10-31T08:15:57;98719.06;;;20.03;53.39
6532;BME280;3299;42.004;24.868;2022-10-31T08:18:28;98719.81;;;20.13;52.41
6532;BME280;3299;42.004;24.868;2022-10-31T08:20:54;98715.28;;;20.23;52.60
6532;BME280;3299;42.004;24.868;2022-10-31T08:23:19;98721.53;;;20.30;52.46
6532;BME280;3299;42.004;24.868;2022-10-31T08:25:45;98717.00;;;20.40;52.31
6532;BME280;3299;42.004;24.868;2022-10-31T08:28:13;98707.78;;;20.44;52.08
6532;BME280;3299;42.004;24.868;2022-10-31T08:30:39;98714.75;;;20.61;52.17
6532;BME280;3299;42.004;24.868;2022-10-31T08:33:11;98709.97;;;20.64;51.70
6532;BME280;3299;42.004;24.868;2022-10-31T08:35:37;98715.28;;;20.80;51.67
6532;BME280;3299;42.004;24.868;2022-10-31T08:38:03;98713.22;;;20.92;50.48
6532;BME280;3299;42.004;24.868;2022-10-31T08:40:31;98723.09;;;20.98;51.33
6532;BME280;3299;42.004;24.868;2022-10-31T08:43:04;98724.06;;;21.05;50.37
6532;BME280;3299;42.004;24.868;2022-10-31T08:45:31;98723.75;;;21.16;50.61
6532;BME280;3299;42.004;24.868;2022-10-31T08:47:58;98725.09;;;21.28;49.89
6532;BME280;3299;42.004;24.868;2022-10-31T08:50:24;98718.31;;;21.33;49.51
6532;BME280;3299;42.004;24.868;2022-10-31T08:52:50;98728.53;;;21.52;49.00
6532;BME280;3299;42.004;24.868;2022-10-31T08:55:15;98727.72;;;21.68;48.44
6532;BME280;3299;42.004;24.868;2022-10-31T08:57:40;98725.56;;;21.79;48.20
6532;BME280;3299;42.004;24.868;2022-10-31T09:00:06;98736.72;;;21.97;48.02
6532;BME280;3299;42.004;24.868;2022-10-31T09:02:32;98735.72;;;22.06;47.22
6532;BME280;3299;42.004;24.868;2022-10-31T09:04:57;98741.78;;;22.15;46.75
6532;BME280;3299;42.004;24.868;2022-10-31T09:07:23;98735.34;;;22.17;46.42
6532;BME280;3299;42.004;24.868;2022-10-31T09:09:48;98744.25;;;22.16;46.31
6532;BME280;3299;42.004;24.868;2022-10-31T09:12:13;98752.66;;;22.12;45.93
6532;BME280;3299;42.004;24.868;2022-10-31T09:14:39;98743.47;;;22.08;46.01
6532;BME280;3299;42.004;24.868;2022-10-31T09:17:04;98746.41;;;22.05;46.02
6532;BME280;3299;42.004;24.868;2022-10-31T09:19:29;98740.03;;;21.99;46.26
6532;BME280;3299;42.004;24.868;2022-10-31T09:21:55;98734.75;;;21.91;46.53
6532;BME280;3299;42.004;24.868;2022-10-31T09:24:21;98739.53;;;21.88;46.69
6532;BME280;3299;42.004;24.868;2022-10-31T09:26:46;98741.84;;;21.83;47.09
6532;BME280;3299;42.004;24.868;2022-10-31T09:29:11;98741.72;;;21.76;47.49
6532;BME280;3299;42.004;24.868;2022-10-31T09:31:37;98741.53;;;21.78;46.97
6532;BME280;3299;42.004;24.868;2022-10-31T09:34:02;98738.22;;;21.84;46.88
6532;BME280;3299;42.004;24.868;2022-10-31T09:36:28;98731.78;;;21.86;46.98
6532;BME280;3299;42.004;24.868;2022-10-31T09:38:53;98738.06;;;21.93;47.02
6532;BME280;3299;42.004;24.868;2022-10-31T09:41:45;98736.38;;;22.00;46.83
6532;BME280;3299;42.004;24.868;2022-10-31T09:45:07;98731.56;;;22.12;46.23
6532;BME280;3299;42.004;24.868;2022-10-31T09:50:46;98735.47;;;22.32;45.41
6532;BME280;3299;42.004;24.868;2022-10-31T09:53:38;98729.81;;;22.43;45.18
6532;BME280;3299;42.004;24.868;2022-10-31T09:56:08;98726.00;;;22.53;44.81
6532;BME280;3299;42.004;24.868;2022-10-31T09:58:41;98727.13;;;22.59;44.44
6532;BME280;3299;42.004;24.868;2022-10-31T10:01:58;98718.50;;;22.65;44.19
6532;BME280;3299;42.004;24.868;2022-10-31T10:06:57;98709.41;;;22.75;43.62
6532;BME280;3299;42.004;24.868;2022-10-31T10:09:27;98717.72;;;22.87;43.44
6532;BME280;3299;42.004;24.868;2022-10-31T10:33:03;98706.91;;;23.63;41.29
6532;BME280;3299;42.004;24.868;2022-10-31T10:35:34;98702.91;;;23.67;41.64
6532;BME280;3299;42.004;24.868;2022-10-31T10:41:01;98700.91;;;23.69;41.60
6532;BME280;3299;42.004;24.868;2022-10-31T10:43:33;98694.84;;;23.83;40.56
6532;BME280;3299;42.004;24.868;2022-10-31T10:57:12;98706.03;;;24.43;39.39
6532;BME280;3299;42.004;24.868;2022-10-31T10:59:39;98694.72;;;24.49;38.75
6532;BME280;3299;42.004;24.868;2022-10-31T11:02:21;98698.94;;;24.58;38.65
6532;BME280;3299;42.004;24.868;2022-10-31T11:04:50;98699.84;;;24.65;38.77
6532;BME280;3299;42.004;24.868;2022-10-31T11:07:16;98698.47;;;24.69;39.28
6532;BME280;3299;42.004;24.868;2022-10-31T11:09:42;98694.69;;;24.78;38.60
6532;BME280;3299;42.004;24.868;2022-10-31T11:12:32;98687.38;;;24.80;38.49
6532;BME280;3299;42.004;24.868;2022-10-31T11:15:02;98684.97;;;24.85;39.02
6532;BME280;3299;42.004;24.868;2022-10-31T11:17:33;98678.88;;;24.85;38.65
6532;BME280;3299;42.004;24.868;2022-10-31T11:22:26;98683.09;;;25.00;38.00
6532;BME280;3299;42.004;24.868;2022-10-31T11:24:51;98686.19;;;25.04;38.08
6532;BME280;3299;42.004;24.868;2022-10-31T11:27:21;98686.81;;;25.06;37.46
6532;BME280;3299;42.004;24.868;2022-10-31T11:29:48;98674.41;;;25.06;37.70
6532;BME280;3299;42.004;24.868;2022-10-31T11:32:22;98682.78;;;25.10;37.81
6532;BME280;3299;42.004;24.868;2022-10-31T11:35:00;98679.94;;;25.11;37.70
6532;BME280;3299;42.004;24.868;2022-10-31T11:37:29;98666.72;;;25.11;37.78
6532;BME280;3299;42.004;24.868;2022-10-31T11:39:59;98679.81;;;25.19;37.60
6532;BME280;3299;42.004;24.868;2022-10-31T11:42:35;98674.44;;;25.27;36.85
6532;BME280;3299;42.004;24.868;2022-10-31T11:45:07;98673.78;;;25.25;37.04
6532;BME280;3299;42.004;24.868;2022-10-31T11:47:41;98669.59;;;25.16;37.42
6532;BME280;3299;42.004;24.868;2022-10-31T11:50:10;98664.69;;;25.13;37.46
6532;BME280;3299;42.004;24.868;2022-10-31T11:52:38;98663.22;;;25.11;37.86
6532;BME280;3299;42.004;24.868;2022-10-31T11:55:28;98666.13;;;25.16;37.72
6532;BME280;3299;42.004;24.868;2022-10-31T11:57:55;98663.28;;;25.17;37.48
6532;BME280;3299;42.004;24.868;2022-10-31T12:00:28;98654.25;;;25.12;37.43
6532;BME280;3299;42.004;24.868;2022-10-31T12:03:27;98659.81;;;25.17;37.33
6532;BME280;3299;42.004;24.868;2022-10-31T12:06:12;98656.91;;;25.12;37.92
6532;BME280;3299;42.004;24.868;2022-10-31T12:08:40;98658.69;;;25.05;38.00
6532;BME280;3299;42.004;24.868;2022-10-31T12:16:50;98665.50;;;24.93;38.30
6532;BME280;3299;42.004;24.868;2022-10-31T12:19:45;98662.06;;;24.92;38.60
6532;BME280;3299;42.004;24.868;2022-10-31T12:25:33;98664.19;;;24.82;39.03
6532;BME280;3299;42.004;24.868;2022-10-31T12:31:00;98664.97;;;24.83;37.91
6532;BME280;3299;42.004;24.868;2022-10-31T12:34:20;98655.22;;;24.83;37.88
6532;BME280;3299;42.004;24.868;2022-10-31T12:42:12;98662.38;;;24.68;38.08
6532;BME280;3299;42.004;24.868;2022-10-31T12:50:35;98655.97;;;24.42;38.81
6532;BME280;3299;42.004;24.868;2022-10-31T12:53:35;98657.84;;;24.48;38.76
6532;BME280;3299;42.004;24.868;2022-10-31T12:56:22;98653.97;;;24.44;38.81
6532;BME280;3299;42.004;24.868;2022-10-31T12:59:04;98654.72;;;24.38;39.83
6532;BME280;3299;42.004;24.868;2022-10-31T13:01:42;98650.97;;;24.32;39.44
6532;BME280;3299;42.004;24.868;2022-10-31T13:06:45;98650.34;;;24.30;39.07
6532;BME280;3299;42.004;24.868;2022-10-31T13:09:20;98648.88;;;24.28;39.34
6532;BME280;3299;42.004;24.868;2022-10-31T13:11:55;98650.69;;;24.27;39.28
6532;BME280;3299;42.004;24.868;2022-10-31T13:14:26;98649.72;;;24.28;38.73
6532;BME280;3299;42.004;24.868;2022-10-31T13:16:55;98638.94;;;24.15;39.29
6532;BME280;3299;42.004;24.868;2022-10-31T13:19:31;98650.94;;;24.12;40.30
6532;BME280;3299;42.004;24.868;2022-10-31T13:22:37;98640.16;;;23.98;41.36
6532;BME280;3299;42.004;24.868;2022-10-31T13:30:22;98635.25;;;23.96;40.81
6532;BME280;3299;42.004;24.868;2022-10-31T13:33:02;98634.63;;;23.94;41.06
6532;BME280;3299;42.004;24.868;2022-10-31T13:46:40;98630.66;;;23.61;41.52
6532;BME280;3299;42.004;24.868;2022-10-31T13:49:36;98623.00;;;23.51;41.61
6532;BME280;3299;42.004;24.868;2022-10-31T13:54:35;98630.53;;;23.40;42.62
6532;BME280;3299;42.004;24.868;2022-10-31T13:57:01;98625.63;;;23.37;43.23
6532;BME280;3299;42.004;24.868;2022-10-31T13:59:32;98625.97;;;23.34;42.69
6532;BME280;3299;42.004;24.868;2022-10-31T14:02:12;98631.91;;;23.36;42.03
6532;BME280;3299;42.004;24.868;2022-10-31T14:04:45;98631.97;;;23.28;42.75
6532;BME280;3299;42.004;24.868;2022-10-31T14:07:14;98627.41;;;23.22;43.21
6532;BME280;3299;42.004;24.868;2022-10-31T14:10:00;98630.59;;;23.17;44.17
6532;BME280;3299;42.004;24.868;2022-10-31T14:12:31;98631.41;;;23.18;43.14
6532;BME280;3299;42.004;24.868;2022-10-31T14:15:14;98631.28;;;23.11;43.41
6532;BME280;3299;42.004;24.868;2022-10-31T14:22:43;98640.78;;;22.98;45.03
6532;BME280;3299;42.004;24.868;2022-10-31T14:27:52;98641.88;;;22.89;45.06
6532;BME280;3299;42.004;24.868;2022-10-31T14:30:21;98646.47;;;22.87;46.05
6532;BME280;3299;42.004;24.868;2022-10-31T14:33:02;98632.53;;;22.78;46.18
6532;BME280;3299;42.004;24.868;2022-10-31T14:35:51;98642.91;;;22.80;46.95
6532;BME280;3299;42.004;24.868;2022-10-31T14:39:09;98638.34;;;22.74;47.24
6532;BME280;3299;42.004;24.868;2022-10-31T14:41:41;98643.31;;;22.69;47.67
6532;BME280;3299;42.004;24.868;2022-10-31T14:44:15;98645.47;;;22.65;48.53
6532;BME280;3299;42.004;24.868;2022-10-31T14:52:35;98637.69;;;22.41;49.34
6532;BME280;3299;42.004;24.868;2022-10-31T14:55:05;98638.03;;;22.38;49.03
6532;BME280;3299;42.004;24.868;2022-10-31T14:57:35;98639.53;;;22.33;49.04
6532;BME280;3299;42.004;24.868;2022-10-31T15:00:07;98640.88;;;22.29;48.72
6532;BME280;3299;42.004;24.868;2022-10-31T15:05:06;98642.41;;;22.15;49.45
6532;BME280;3299;42.004;24.868;2022-10-31T15:07:32;98643.94;;;22.10;49.74
6532;BME280;3299;42.004;24.868;2022-10-31T15:10:21;98643.00;;;22.03;49.93
6532;BME280;3299;42.004;24.868;2022-10-31T15:12:47;98642.50;;;21.99;49.75
6532;BME280;3299;42.004;24.868;2022-10-31T15:15:20;98645.63;;;21.95;50.13
6532;BME280;3299;42.004;24.868;2022-10-31T15:17:53;98657.22;;;21.86;50.44
6532;BME280;3299;42.004;24.868;2022-10-31T15:20:31;98652.63;;;21.80;50.21
6532;BME280;3299;42.004;24.868;2022-10-31T15:22:59;98656.25;;;21.71;50.74
6532;BME280;3299;42.004;24.868;2022-10-31T15:25:30;98655.91;;;21.66;50.87
6532;BME280;3299;42.004;24.868;2022-10-31T15:27:57;98644.75;;;21.56;50.45
6532;BME280;3299;42.004;24.868;2022-10-31T15:30:28;98663.34;;;21.54;50.78
6532;BME280;3299;42.004;24.868;2022-10-31T15:32:54;98662.38;;;21.47;50.94
6532;BME280;3299;42.004;24.868;2022-10-31T15:35:25;98664.00;;;21.40;51.66
6532;BME280;3299;42.004;24.868;2022-10-31T15:37:52;98664.19;;;21.39;51.10